METAR Data
IDs: Format: Raw Decoded Include TAF

Data at: 2159 UTC 24 Mar 2019

KAPY 242155Z AUTO 14009KT 10SM BKN050 31/16 A2994 RMK AO2 T03140162
KAPY 242135Z AUTO 13008KT 110V190 10SM BKN050 31/16 A2995 RMK AO2 T03130162
KAPY 242115Z AUTO 15008KT 10SM BKN050 32/16 A2995 RMK AO2 T03210163
KAPY 242055Z AUTO 16003G15KT 10SM SCT050 30/16 A2996 RMK AO2 T03070165
KAPY 242035Z AUTO 14008KT 10SM SCT048 30/16 A2997 RMK AO2 T03060166
KAPY 242015Z AUTO 14005KT 10SM BKN046 BKN050 31/16 A2998 RMK AO2 T03130167
KAPY 241955Z AUTO 15003KT 10SM BKN044 31/17 A2998 RMK AO2 T03090171
KAPY 241935Z AUTO 11003KT 7SM BKN040 OVC048 29/17 A3000 RMK AO2 T02960173
KAPY 241915Z AUTO 07006KT 10SM OVC036 28/17 A3001 RMK AO2 T02900177
KAPY 241855Z AUTO 00000KT 7SM OVC034 28/17 A3002 RMK AO2 T02840177
KAPY 241835Z AUTO 00000KT 10SM OVC032 27/17 A3003 RMK AO2 T02770177
KAPY 241815Z AUTO 02004KT 10SM BKN027 OVC033 27/18 A3004 RMK AO2 T02800181
KAPY 241755Z AUTO 00000KT 10SM OVC023 26/17 A3005 RMK AO2 T02580178
KAPY 241735Z AUTO 00000KT 10SM OVC021 25/17 A3006 RMK AO2 T02540179
KAPY 241715Z AUTO 12005KT 10SM OVC019 24/17 A3006 RMK AO2 T02440179
KAPY 241655Z AUTO 13004KT 10SM OVC015 23/17 A3007 RMK AO2 T02380179
KAPY 241635Z AUTO 12006KT 10SM OVC015 23/17 A3008 RMK AO2 T02310178
KAPY 241615Z AUTO 15004KT 7SM OVC013 22/17 A3008 RMK AO2 T02230178
KAPY 241555Z AUTO 11006KT 10SM OVC011 21/17 A3008 RMK AO2 T02180178
KAPY 241535Z AUTO 15005KT 10SM OVC011 21/17 A3008 RMK AO2 T02160178
KAPY 241515Z AUTO 14005KT 7SM OVC011 21/17 A3008 RMK AO2 T02150177
KAPY 241455Z AUTO 14006KT 10SM OVC011 21/18 A3007 RMK AO2 T02120181
KAPY 241435Z AUTO 14003KT 10SM OVC011 21/18 A3007 RMK AO2 T02100185
KAPY 241415Z AUTO 13005KT 7SM OVC011 20/18 A3006 RMK AO2 T02050185
KAPY 241355Z AUTO 13003KT 10SM OVC011 20/18 A3005 RMK AO2 T02020188
KAPY 241335Z AUTO 10004KT 7SM BKN011 19/18 A3004 RMK AO2 T01920187
KAPY 241315Z AUTO 00000KT 7SM CLR 18/18 A3003 RMK AO2 T01860182
KAPY 241255Z AUTO 11003KT 7SM CLR 18/18 A3003 RMK AO2 T01850181
KAPY 241235Z AUTO 09003KT 7SM CLR 18/18 A3003 RMK AO2 T01860181
KAPY 241215Z AUTO 08003KT 7SM CLR 18/18 A3002 RMK AO2 T01870181
KAPY 241155Z AUTO 09003KT 10SM CLR 18/18 A3001 RMK AO2 T01900182
KAPY 241135Z AUTO 11003KT 10SM SCT009 19/18 A3001 RMK AO2 T01920183
KAPY 241115Z AUTO 12004KT 10SM SCT011 19/18 A3000 RMK AO2 T01960182
KAPY 241055Z AUTO 12005KT 10SM OVC011 20/17 A3000 RMK AO2 T02010176
KAPY 241035Z AUTO 13006KT 10SM OVC011 20/17 A3000 RMK AO2 T02050177
KAPY 241015Z AUTO 13003KT 10SM OVC011 20/17 A3000 RMK AO2 T02060177
KAPY 240955Z AUTO 13005KT 10SM OVC013 20/17 A2999 RMK AO2 T02060176
KAPY 240935Z AUTO 13007KT 10SM OVC013 20/17 A2999 RMK AO2 T02070176
KAPY 240915Z AUTO 14006KT 10SM OVC013 21/17 A2999 RMK AO2 T02090175
KAPY 240855Z AUTO 14004KT 10SM OVC013 21/17 A2999 RMK AO2 T02100176
KAPY 240835Z AUTO 15006KT 10SM OVC013 21/17 A2999 RMK AO2 T02080175
KAPY 240815Z AUTO 15010G15KT 10SM OVC013 21/17 A3000 RMK AO2 T02090175
KAPY 240755Z AUTO 15009G14KT 10SM OVC013 21/17 A3001 RMK AO2 T02080175
KAPY 240735Z AUTO 15008G15KT 10SM OVC013 20/17 A3002 RMK AO2 T02070175
KAPY 240715Z AUTO 15007KT 10SM OVC013 20/17 A3003 RMK AO2 T02060175
KAPY 240655Z AUTO 15011G19KT 10SM OVC013 20/17 A3003 RMK AO2 T02050173
KAPY 240635Z AUTO 15008KT 10SM OVC013 20/17 A3003 RMK AO2 T02050172
KAPY 240615Z AUTO 14008KT 10SM SCT015 20/17 A3004 RMK AO2 T02020170
KAPY 240555Z AUTO 14006KT 10SM CLR 20/16 A3005 RMK AO2 T02030168
KAPY 240535Z AUTO 13007KT 10SM CLR 20/16 A3004 RMK AO2 T02050169
KAPY 240515Z AUTO 13008KT 10SM CLR 21/17 A3005 RMK AO2 T02080170
KAPY 240455Z AUTO 12006KT 10SM CLR 21/17 A3005 RMK AO2 T02100170
KAPY 240435Z AUTO 13008G15KT 10SM CLR 21/17 A3006 RMK AO2 T02130171
KAPY 240415Z AUTO 13006KT 10SM SCT021 21/17 A3006 RMK AO2 T02160172
KAPY 240355Z AUTO 13009KT 10SM SCT021 21/17 A3006 RMK AO2 T02190172
KAPY 240335Z AUTO 13006KT 10SM SCT021 22/17 A3005 RMK AO2 T02210172
KAPY 240315Z AUTO 13006KT 10SM CLR 22/17 A3004 RMK AO2 T02250171
KAPY 240255Z AUTO 13011G18KT 10SM CLR 22/17 A3002 RMK AO2 T02280172
KAPY 240235Z AUTO 13011G15KT 10SM CLR 23/17 A3001 RMK AO2 T02330171
KAPY 240215Z AUTO 13012G16KT 10SM CLR 23/17 A3000 RMK AO2 T02380170
KAPY 240155Z AUTO 12011G16KT 10SM CLR 24/17 A2999 RMK AO2 T02410170
KAPY 240135Z AUTO 12010G16KT 10SM CLR 24/16 A2997 RMK AO2 T02450169
KAPY 240115Z AUTO 11012G21KT 10SM CLR 25/16 A2997 RMK AO2 T02520167
KAPY 240055Z AUTO 11013G19KT 10SM SCT055 26/16 A2995 RMK AO2 T02600165
KAPY 240035Z AUTO 10011G15KT 10SM SCT055 26/16 A2996 RMK AO2 T02690162
KAPY 240015Z AUTO 12004KT 10SM CLR 28/14 A2996 RMK AO2 T02810145
KAPY 232355Z AUTO 10003KT 10SM CLR 27/13 A2996 RMK AO2 T02740140
KAPY 232335Z AUTO 13004KT 10SM CLR 27/13 A2996 RMK AO2 T02800139
KAPY 232315Z AUTO 00000KT 10SM SCT060 28/14 A2996 RMK AO2 T02830142
KAPY 232255Z AUTO 00000KT 10SM BKN050 OVC060 28/14 A2996 RMK AO2 T02820143
KAPY 232235Z AUTO 12004KT 10SM OVC050 28/14 A2996 RMK AO2 T02840146
KAPY 232215Z AUTO 15003KT 10SM BKN050 28/15 A2996 RMK AO2 T02870152
KAPY 232155Z AUTO 16005KT 10SM SCT044 SCT060 28/15 A2996 RMK AO2 T02860148
KAPY 232135Z AUTO 00000KT 10SM BKN046 BKN060 27/15 A2997 RMK AO2 T02730155
KAPY 232115Z AUTO 00000KT 10SM BKN046 BKN060 27/15 A2997 RMK AO2 T02720150
KAPY 232055Z AUTO 23003KT 10SM SCT042 BKN049 27/15 A2998 RMK AO2 T02740149
KAPY 232035Z AUTO 10003KT 10SM OVC040 26/15 A2998 RMK AO2 T02680149
KAPY 232015Z AUTO 16003KT 10SM SCT040 SCT048 SCT055 28/15 A2999 RMK AO2 T02860152
KAPY 231955Z AUTO 19003KT 10SM SCT039 26/15 A3000 RMK AO2 T02640156
KAPY 231935Z AUTO 14004KT 10SM SCT037 BKN043 BKN048 25/15 A3001 RMK AO2 T02550156
KAPY 231915Z AUTO 22007KT 10SM BKN037 OVC043 25/16 A3002 RMK AO2 T02540159
KAPY 231855Z AUTO 18006KT 10SM BKN033 OVC041 25/15 A3003 RMK AO2 T02540154
KAPY 231835Z AUTO 15003KT 10SM SCT033 OVC040 25/15 A3003 RMK AO2 T02540155
KAPY 231815Z AUTO 16006KT 10SM SCT031 OVC038 25/16 A3004 RMK AO2 T02520159
KAPY 231755Z AUTO 15006KT 10SM SCT027 BKN036 OVC042 25/16 A3004 RMK AO2 T02550159
KAPY 231735Z AUTO 13004KT 10SM SCT020 OVC033 24/16 A3005 RMK AO2 T02410163
KAPY 231715Z AUTO 13006KT 10SM SCT020 OVC027 23/16 A3005 RMK AO2 T02310167
KAPY 231655Z AUTO 14004KT 10SM SCT018 SCT024 OVC031 22/16 A3006 RMK AO2 T02250166
KAPY 231635Z AUTO 15005KT 10SM SCT018 OVC031 22/16 A3006 RMK AO2 T02220166
KAPY 231615Z AUTO 15005KT 10SM BKN018 BKN023 OVC033 22/16 A3005 RMK AO2 T02200168
KAPY 231555Z AUTO 14006KT 10SM BKN016 OVC027 21/16 A3006 RMK AO2 T02150169
KAPY 231535Z AUTO 14008KT 10SM SCT014 OVC033 21/17 A3005 RMK AO2 T02150170
KAPY 231515Z AUTO 14008KT 10SM SCT014 BKN031 OVC037 21/16 A3005 RMK AO2 T02080168
KAPY 231455Z AUTO 14007KT 10SM BKN014 OVC034 20/16 A3005 RMK AO2 T02070168
KAPY 231435Z AUTO 15010KT 10SM SCT014 BKN021 OVC034 20/16 A3005 RMK AO2 T02020167
KAPY 231415Z AUTO 15005KT 10SM BKN014 OVC023 20/16 A3005 RMK AO2 T02000167
KAPY 231355Z AUTO 14006KT 10SM OVC014 20/16 A3005 RMK AO2 T01990166
KAPY 231335Z AUTO 15005KT 10SM BKN014 OVC021 20/16 A3004 RMK AO2 T01980165
KAPY 231315Z AUTO 15005KT 10SM BKN014 OVC020 20/16 A3003 RMK AO2 T02000165
KAPY 231255Z AUTO 15005KT 10SM BKN014 OVC022 20/16 A3002 RMK AO2 T02000165
KAPY 231235Z AUTO 15006KT 10SM BKN016 BKN024 OVC033 20/16 A3001 RMK AO2 T02000164
KAPY 231215Z AUTO 15007KT 10SM BKN016 BKN022 OVC033 20/16 A3000 RMK AO2 T02010164
KAPY 231155Z AUTO 15011G16KT 10SM BKN016 OVC022 20/16 A2999 RMK AO2 T02020164
KAPY 231135Z AUTO 14009G17KT 10SM OVC016 20/16 A2998 RMK AO2 T02020163
KAPY 231115Z AUTO 14007G14KT 10SM OVC018 20/16 A2998 RMK AO2 T02020162
KAPY 231055Z AUTO 14008G14KT 10SM OVC020 20/16 A2998 RMK AO2 T02020161
KAPY 231035Z AUTO 13005KT 10SM BKN022 OVC032 20/16 A2999 RMK AO2 T02030161
KAPY 231015Z AUTO 14008G14KT 10SM SCT020 OVC034 20/16 A2998 RMK AO2 T02030161